sensor_id;sensor_type;location;lat;lon;timestamp;temperature;humidity
4643;DHT22;2334;48.710;9.622;2023-04-03T00:01:35;4.10;99.90
4643;DHT22;2334;48.710;9.622;2023-04-03T00:04:03;4.10;99.90
4643;DHT22;2334;48.710;9.622;2023-04-03T00:06:32;4.10;99.90
4643;DHT22;2334;48.710;9.622;2023-04-03T00:08:59;4.20;99.90
4643;DHT22;2334;48.710;9.622;2023-04-03T00:11:26;4.20;99.90
4643;DHT22;2334;48.710;9.622;2023-04-03T00:13:53;4.10;99.90
4643;DHT22;2334;48.710;9.622;2023-04-03T00:16:20;4.10;99.90
4643;DHT22;2334;48.710;9.622;2023-04-03T00:18:47;4.10;99.90
4643;DHT22;2334;48.710;9.622;2023-04-03T00:21:14;4.10;99.90
4643;DHT22;2334;48.710;9.622;2023-04-03T00:23:42;4.10;99.90
4643;DHT22;2334;48.710;9.622;2023-04-03T00:26:09;4.10;99.90
4643;DHT22;2334;48.710;9.622;2023-04-03T00:28:36;4.00;99.90
4643;DHT22;2334;48.710;9.622;2023-04-03T00:31:03;4.00;99.90
4643;DHT22;2334;48.710;9.622;2023-04-03T00:33:30;4.10;99.90
4643;DHT22;2334;48.710;9.622;2023-04-03T00:35:57;4.10;99.90
4643;DHT22;2334;48.710;9.622;2023-04-03T00:38:24;4.10;99.90
4643;DHT22;2334;48.710;9.622;2023-04-03T00:40:52;4.00;99.90
4643;DHT22;2334;48.710;9.622;2023-04-03T00:43:21;4.00;99.90
4643;DHT22;2334;48.710;9.622;2023-04-03T00:45:49;4.00;99.90
4643;DHT22;2334;48.710;9.622;2023-04-03T00:48:20;4.00;99.90
4643;DHT22;2334;48.710;9.622;2023-04-03T00:50:47;4.00;99.90
4643;DHT22;2334;48.710;9.622;2023-04-03T00:53:17;3.90;99.90
4643;DHT22;2334;48.710;9.622;2023-04-03T00:55:47;3.90;99.90
4643;DHT22;2334;48.710;9.622;2023-04-03T00:58:18;3.90;99.90
4643;DHT22;2334;48.710;9.622;2023-04-03T01:00:50;3.90;99.90
4643;DHT22;2334;48.710;9.622;2023-04-03T01:03:19;3.90;99.90
4643;DHT22;2334;48.710;9.622;2023-04-03T01:05:46;3.90;99.90
4643;DHT22;2334;48.710;9.622;2023-04-03T01:08:12;3.90;99.90
4643;DHT22;2334;48.710;9.622;2023-04-03T01:10:39;3.80;99.90
4643;DHT22;2334;48.710;9.622;2023-04-03T01:13:21;3.80;99.90
4643;DHT22;2334;48.710;9.622;2023-04-03T01:15:48;3.80;99.90
4643;DHT22;2334;48.710;9.622;2023-04-03T01:18:15;3.80;99.90
4643;DHT22;2334;48.710;9.622;2023-04-03T01:26:35;3.80;99.90
4643;DHT22;2334;48.710;9.622;2023-04-03T01:29:03;3.80;99.90
4643;DHT22;2334;48.710;9.622;2023-04-03T01:31:40;3.80;99.90
4643;DHT22;2334;48.710;9.622;2023-04-03T01:34:07;3.70;99.90
4643;DHT22;2334;48.710;9.622;2023-04-03T01:36:33;3.70;99.90
4643;DHT22;2334;48.710;9.622;2023-04-03T01:39:00;3.70;99.90
4643;DHT22;2334;48.710;9.622;2023-04-03T01:41:27;3.70;99.90
4643;DHT22;2334;48.710;9.622;2023-04-03T01:43:54;3.70;99.90
4643;DHT22;2334;48.710;9.622;2023-04-03T01:46:22;3.70;99.90
4643;DHT22;2334;48.710;9.622;2023-04-03T01:48:50;3.70;99.90
4643;DHT22;2334;48.710;9.622;2023-04-03T01:51:17;3.70;99.90
4643;DHT22;2334;48.710;9.622;2023-04-03T01:53:44;3.70;99.90
4643;DHT22;2334;48.710;9.622;2023-04-03T01:56:11;3.70;99.90
4643;DHT22;2334;48.710;9.622;2023-04-03T01:58:37;3.70;99.90
4643;DHT22;2334;48.710;9.622;2023-04-03T02:01:04;3.70;99.90
4643;DHT22;2334;48.710;9.622;2023-04-03T02:03:32;3.70;99.90
4643;DHT22;2334;48.710;9.622;2023-04-03T02:06:00;3.70;99.90
4643;DHT22;2334;48.710;9.622;2023-04-03T02:08:27;3.70;99.90
4643;DHT22;2334;48.710;9.622;2023-04-03T02:10:54;3.70;99.90
4643;DHT22;2334;48.710;9.622;2023-04-03T02:13:21;3.70;99.90
4643;DHT22;2334;48.710;9.622;2023-04-03T02:15:48;3.70;99.90
4643;DHT22;2334;48.710;9.622;2023-04-03T02:18:15;3.70;99.90
4643;DHT22;2334;48.710;9.622;2023-04-03T02:20:42;3.70;99.90
4643;DHT22;2334;48.710;9.622;2023-04-03T02:23:10;3.70;99.90
4643;DHT22;2334;48.710;9.622;2023-04-03T02:25:37;3.70;99.90
4643;DHT22;2334;48.710;9.622;2023-04-03T02:28:04;3.70;99.90
4643;DHT22;2334;48.710;9.622;2023-04-03T02:30:31;3.70;99.90
4643;DHT22;2334;48.710;9.622;2023-04-03T02:32:58;3.70;99.90
4643;DHT22;2334;48.710;9.622;2023-04-03T02:35:25;3.70;99.90
4643;DHT22;2334;48.710;9.622;2023-04-03T02:37:52;3.70;99.90
4643;DHT22;2334;48.710;9.622;2023-04-03T02:40:20;3.70;99.90
4643;DHT22;2334;48.710;9.622;2023-04-03T02:42:47;3.70;99.90
4643;DHT22;2334;48.710;9.622;2023-04-03T02:45:14;3.70;99.90
4643;DHT22;2334;48.710;9.622;2023-04-03T02:47:41;3.70;99.90
4643;DHT22;2334;48.710;9.622;2023-04-03T02:50:08;3.70;99.90
4643;DHT22;2334;48.710;9.622;2023-04-03T02:52:35;3.70;99.90
4643;DHT22;2334;48.710;9.622;2023-04-03T02:55:02;3.70;99.90
4643;DHT22;2334;48.710;9.622;2023-04-03T02:57:31;3.70;99.90
4643;DHT22;2334;48.710;9.622;2023-04-03T02:59:58;3.70;99.90
4643;DHT22;2334;48.710;9.622;2023-04-03T03:02:25;3.70;99.90
4643;DHT22;2334;48.710;9.622;2023-04-03T03:04:51;3.70;99.90
4643;DHT22;2334;48.710;9.622;2023-04-03T03:07:18;3.70;99.90
4643;DHT22;2334;48.710;9.622;2023-04-03T03:09:45;3.70;99.90
4643;DHT22;2334;48.710;9.622;2023-04-03T03:12:12;3.70;99.90
4643;DHT22;2334;48.710;9.622;2023-04-03T03:14:40;3.70;99.90
4643;DHT22;2334;48.710;9.622;2023-04-03T03:17:08;3.70;99.90
4643;DHT22;2334;48.710;9.622;2023-04-03T03:19:35;3.70;99.90
4643;DHT22;2334;48.710;9.622;2023-04-03T03:22:02;3.70;99.90
4643;DHT22;2334;48.710;9.622;2023-04-03T03:24:29;3.80;99.90
4643;DHT22;2334;48.710;9.622;2023-04-03T03:26:55;3.70;99.90
4643;DHT22;2334;48.710;9.622;2023-04-03T03:29:22;3.70;99.90
4643;DHT22;2334;48.710;9.622;2023-04-03T03:31:50;3.70;99.90
4643;DHT22;2334;48.710;9.622;2023-04-03T03:34:17;3.70;99.90
4643;DHT22;2334;48.710;9.622;2023-04-03T03:36:44;3.70;99.90
4643;DHT22;2334;48.710;9.622;2023-04-03T03:39:12;3.70;99.90
4643;DHT22;2334;48.710;9.622;2023-04-03T03:41:39;3.70;99.90
4643;DHT22;2334;48.710;9.622;2023-04-03T03:44:06;3.70;99.90
4643;DHT22;2334;48.710;9.622;2023-04-03T03:46:33;3.70;99.90
4643;DHT22;2334;48.710;9.622;2023-04-03T03:49:01;3.70;99.90
4643;DHT22;2334;48.710;9.622;2023-04-03T03:51:28;3.70;99.90
4643;DHT22;2334;48.710;9.622;2023-04-03T03:53:55;3.70;99.90
4643;DHT22;2334;48.710;9.622;2023-04-03T03:56:22;3.70;99.90
4643;DHT22;2334;48.710;9.622;2023-04-03T03:58:49;3.70;99.90
4643;DHT22;2334;48.710;9.622;2023-04-03T04:01:16;3.70;99.90
4643;DHT22;2334;48.710;9.622;2023-04-03T04:03:43;3.70;99.90
4643;DHT22;2334;48.710;9.622;2023-04-03T04:06:11;3.70;99.90
4643;DHT22;2334;48.710;9.622;2023-04-03T04:08:38;3.70;99.90
4643;DHT22;2334;48.710;9.622;2023-04-03T04:11:06;3.70;99.90
4643;DHT22;2334;48.710;9.622;2023-04-03T04:13:33;3.70;99.90
4643;DHT22;2334;48.710;9.622;2023-04-03T04:16:00;3.70;99.90
4643;DHT22;2334;48.710;9.622;2023-04-03T04:18:27;3.70;99.90
4643;DHT22;2334;48.710;9.622;2023-04-03T04:20:54;3.70;99.90
4643;DHT22;2334;48.710;9.622;2023-04-03T04:23:22;3.70;99.90
4643;DHT22;2334;48.710;9.622;2023-04-03T04:25:49;3.70;99.90
4643;DHT22;2334;48.710;9.622;2023-04-03T04:28:16;3.70;99.90
4643;DHT22;2334;48.710;9.622;2023-04-03T04:30:43;3.70;99.90
4643;DHT22;2334;48.710;9.622;2023-04-03T04:33:11;3.70;99.90
4643;DHT22;2334;48.710;9.622;2023-04-03T04:35:40;3.60;99.90
4643;DHT22;2334;48.710;9.622;2023-04-03T04:38:08;3.60;99.90
4643;DHT22;2334;48.710;9.622;2023-04-03T04:40:36;3.60;99.90
4643;DHT22;2334;48.710;9.622;2023-04-03T04:43:03;3.60;99.90
4643;DHT22;2334;48.710;9.622;2023-04-03T04:45:30;3.60;99.90
4643;DHT22;2334;48.710;9.622;2023-04-03T04:47:57;3.60;99.90
4643;DHT22;2334;48.710;9.622;2023-04-03T04:50:24;3.60;99.90
4643;DHT22;2334;48.710;9.622;2023-04-03T04:52:51;3.60;99.90
4643;DHT22;2334;48.710;9.622;2023-04-03T04:55:18;3.60;99.90
4643;DHT22;2334;48.710;9.622;2023-04-03T04:57:46;3.60;99.90
4643;DHT22;2334;48.710;9.622;2023-04-03T05:00:14;3.60;99.90
4643;DHT22;2334;48.710;9.622;2023-04-03T05:02:41;3.60;99.90
4643;DHT22;2334;48.710;9.622;2023-04-03T05:05:08;3.60;99.90
4643;DHT22;2334;48.710;9.622;2023-04-03T05:07:35;3.60;99.90
4643;DHT22;2334;48.710;9.622;2023-04-03T05:10:02;3.50;99.90
4643;DHT22;2334;48.710;9.622;2023-04-03T05:12:29;3.50;99.90
4643;DHT22;2334;48.710;9.622;2023-04-03T05:14:58;3.40;99.90
4643;DHT22;2334;48.710;9.622;2023-04-03T05:17:25;3.40;99.90
4643;DHT22;2334;48.710;9.622;2023-04-03T05:19:51;3.30;99.90
4643;DHT22;2334;48.710;9.622;2023-04-03T05:22:18;3.30;99.90
4643;DHT22;2334;48.710;9.622;2023-04-03T05:24:47;3.30;99.90
4643;DHT22;2334;48.710;9.622;2023-04-03T05:27:14;3.30;99.90
4643;DHT22;2334;48.710;9.622;2023-04-03T05:29:42;3.20;99.90
4643;DHT22;2334;48.710;9.622;2023-04-03T05:32:10;3.20;99.90
4643;DHT22;2334;48.710;9.622;2023-04-03T05:34:37;3.20;99.90
4643;DHT22;2334;48.710;9.622;2023-04-03T05:37:04;3.20;99.90
4643;DHT22;2334;48.710;9.622;2023-04-03T05:39:31;3.20;99.90
4643;DHT22;2334;48.710;9.622;2023-04-03T05:41:58;3.20;99.90
4643;DHT22;2334;48.710;9.622;2023-04-03T05:44:25;3.20;99.90
4643;DHT22;2334;48.710;9.622;2023-04-03T05:46:52;3.20;99.90
4643;DHT22;2334;48.710;9.622;2023-04-03T05:49:20;3.20;99.90
4643;DHT22;2334;48.710;9.622;2023-04-03T05:51:47;3.20;99.90
4643;DHT22;2334;48.710;9.622;2023-04-03T05:54:18;3.30;99.90
4643;DHT22;2334;48.710;9.622;2023-04-03T05:56:45;3.20;99.90
4643;DHT22;2334;48.710;9.622;2023-04-03T05:59:12;3.20;99.90
4643;DHT22;2334;48.710;9.622;2023-04-03T06:01:39;3.30;99.90
4643;DHT22;2334;48.710;9.622;2023-04-03T06:04:06;3.30;99.90
4643;DHT22;2334;48.710;9.622;2023-04-03T06:06:46;3.30;99.90
4643;DHT22;2334;48.710;9.622;2023-04-03T06:09:14;3.30;99.90
4643;DHT22;2334;48.710;9.622;2023-04-03T06:11:41;3.40;99.90
4643;DHT22;2334;48.710;9.622;2023-04-03T06:14:11;3.40;99.90
4643;DHT22;2334;48.710;9.622;2023-04-03T06:16:40;3.40;99.90
4643;DHT22;2334;48.710;9.622;2023-04-03T06:19:08;3.50;99.90
4643;DHT22;2334;48.710;9.622;2023-04-03T06:21:35;3.50;99.90
4643;DHT22;2334;48.710;9.622;2023-04-03T06:24:04;3.50;99.90
4643;DHT22;2334;48.710;9.622;2023-04-03T06:26:32;3.50;99.90
4643;DHT22;2334;48.710;9.622;2023-04-03T06:28:59;3.50;99.90
4643;DHT22;2334;48.710;9.622;2023-04-03T06:31:26;3.50;99.90
4643;DHT22;2334;48.710;9.622;2023-04-03T06:33:53;3.60;99.90
4643;DHT22;2334;48.710;9.622;2023-04-03T06:36:20;3.60;99.90
4643;DHT22;2334;48.710;9.622;2023-04-03T06:38:48;3.70;99.90
4643;DHT22;2334;48.710;9.622;2023-04-03T06:41:16;3.70;99.90
4643;DHT22;2334;48.710;9.622;2023-04-03T06:43:43;3.80;99.90
4643;DHT22;2334;48.710;9.622;2023-04-03T06:46:14;3.80;99.90
4643;DHT22;2334;48.710;9.622;2023-04-03T06:48:42;3.90;99.90
4643;DHT22;2334;48.710;9.622;2023-04-03T06:51:17;3.90;99.90
4643;DHT22;2334;48.710;9.622;2023-04-03T06:53:45;3.90;99.90
4643;DHT22;2334;48.710;9.622;2023-04-03T06:56:13;3.90;99.90
4643;DHT22;2334;48.710;9.622;2023-04-03T06:58:42;3.90;99.90
4643;DHT22;2334;48.710;9.622;2023-04-03T07:01:09;4.00;99.90
4643;DHT22;2334;48.710;9.622;2023-04-03T07:03:36;4.00;99.90
4643;DHT22;2334;48.710;9.622;2023-04-03T07:06:04;4.10;99.90
4643;DHT22;2334;48.710;9.622;2023-04-03T07:08:31;4.10;99.90
4643;DHT22;2334;48.710;9.622;2023-04-03T07:10:58;4.20;99.90
4643;DHT22;2334;48.710;9.622;2023-04-03T07:13:26;4.20;99.90
4643;DHT22;2334;48.710;9.622;2023-04-03T07:15:54;4.30;99.90
4643;DHT22;2334;48.710;9.622;2023-04-03T07:18:22;4.40;99.90
4643;DHT22;2334;48.710;9.622;2023-04-03T07:20:49;4.40;99.90
4643;DHT22;2334;48.710;9.622;2023-04-03T07:23:16;4.40;99.90
4643;DHT22;2334;48.710;9.622;2023-04-03T07:25:43;4.50;99.90
4643;DHT22;2334;48.710;9.622;2023-04-03T07:28:11;4.60;99.90
4643;DHT22;2334;48.710;9.622;2023-04-03T07:30:43;4.70;99.90
4643;DHT22;2334;48.710;9.622;2023-04-03T07:33:13;4.90;99.90
4643;DHT22;2334;48.710;9.622;2023-04-03T07:35:41;5.10;99.90
4643;DHT22;2334;48.710;9.622;2023-04-03T07:38:08;5.20;99.90
4643;DHT22;2334;48.710;9.622;2023-04-03T07:40:35;5.10;99.90
4643;DHT22;2334;48.710;9.622;2023-04-03T07:43:03;5.20;99.90
4643;DHT22;2334;48.710;9.622;2023-04-03T07:45:30;5.30;99.90
4643;DHT22;2334;48.710;9.622;2023-04-03T07:47:57;5.20;99.90
4643;DHT22;2334;48.710;9.622;2023-04-03T07:50:25;5.40;99.90
4643;DHT22;2334;48.710;9.622;2023-04-03T07:52:53;5.70;99.90
4643;DHT22;2334;48.710;9.622;2023-04-03T07:55:21;5.90;99.90
4643;DHT22;2334;48.710;9.622;2023-04-03T07:57:48;6.00;99.90
4643;DHT22;2334;48.710;9.622;2023-04-03T08:00:16;6.00;99.90
4643;DHT22;2334;48.710;9.622;2023-04-03T08:02:45;5.80;99.90
4643;DHT22;2334;48.710;9.622;2023-04-03T08:05:16;5.80;99.90
4643;DHT22;2334;48.710;9.622;2023-04-03T08:07:47;6.00;99.90
4643;DHT22;2334;48.710;9.622;2023-04-03T08:10:17;6.10;99.90
4643;DHT22;2334;48.710;9.622;2023-04-03T08:12:48;6.40;99.90
4643;DHT22;2334;48.710;9.622;2023-04-03T08:15:16;6.50;99.90
4643;DHT22;2334;48.710;9.622;2023-04-03T08:17:43;6.60;99.90
4643;DHT22;2334;48.710;9.622;2023-04-03T08:20:10;6.80;99.90
4643;DHT22;2334;48.710;9.622;2023-04-03T08:22:37;7.00;99.90
4643;DHT22;2334;48.710;9.622;2023-04-03T08:25:06;7.30;99.90
4643;DHT22;2334;48.710;9.622;2023-04-03T08:27:33;7.20;99.90
4643;DHT22;2334;48.710;9.622;2023-04-03T08:30:00;7.00;99.90
4643;DHT22;2334;48.710;9.622;2023-04-03T08:32:28;6.80;99.90
4643;DHT22;2334;48.710;9.622;2023-04-03T08:34:55;6.70;99.90
4643;DHT22;2334;48.710;9.622;2023-04-03T08:37:22;6.60;99.90
4643;DHT22;2334;48.710;9.622;2023-04-03T08:39:49;6.70;99.90
4643;DHT22;2334;48.710;9.622;2023-04-03T08:42:24;6.70;99.90
4643;DHT22;2334;48.710;9.622;2023-04-03T08:45:00;6.50;99.90
4643;DHT22;2334;48.710;9.622;2023-04-03T08:47:34;6.30;99.90
4643;DHT22;2334;48.710;9.622;2023-04-03T08:50:06;6.40;99.90
4643;DHT22;2334;48.710;9.622;2023-04-03T08:52:36;6.40;99.90
4643;DHT22;2334;48.710;9.622;2023-04-03T08:55:10;6.50;99.90
4643;DHT22;2334;48.710;9.622;2023-04-03T08:57:43;6.40;99.90
4643;DHT22;2334;48.710;9.622;2023-04-03T09:00:17;6.30;99.90
4643;DHT22;2334;48.710;9.622;2023-04-03T09:02:46;6.40;99.90
4643;DHT22;2334;48.710;9.622;2023-04-03T09:05:17;6.40;99.90
4643;DHT22;2334;48.710;9.622;2023-04-03T09:07:49;6.40;99.90
4643;DHT22;2334;48.710;9.622;2023-04-03T09:10:23;6.50;99.90
4643;DHT22;2334;48.710;9.622;2023-04-03T09:12:58;6.70;99.90
4643;DHT22;2334;48.710;9.622;2023-04-03T09:15:26;6.90;99.90
4643;DHT22;2334;48.710;9.622;2023-04-03T09:17:59;7.00;99.90
4643;DHT22;2334;48.710;9.622;2023-04-03T09:20:39;6.80;99.90
4643;DHT22;2334;48.710;9.622;2023-04-03T09:23:14;6.90;99.90
4643;DHT22;2334;48.710;9.622;2023-04-03T09:25:42;7.00;99.90
4643;DHT22;2334;48.710;9.622;2023-04-03T09:28:11;6.90;99.90
4643;DHT22;2334;48.710;9.622;2023-04-03T09:30:38;7.00;99.90
4643;DHT22;2334;48.710;9.622;2023-04-03T09:33:05;7.00;99.90
4643;DHT22;2334;48.710;9.622;2023-04-03T09:35:34;7.30;99.90
4643;DHT22;2334;48.710;9.622;2023-04-03T09:38:15;7.50;99.90
4643;DHT22;2334;48.710;9.622;2023-04-03T09:40:44;7.40;99.90
4643;DHT22;2334;48.710;9.622;2023-04-03T09:43:30;7.50;99.90
4643;DHT22;2334;48.710;9.622;2023-04-03T09:46:16;7.50;99.90
4643;DHT22;2334;48.710;9.622;2023-04-03T09:48:50;7.30;99.90
4643;DHT22;2334;48.710;9.622;2023-04-03T09:51:17;7.20;99.90
4643;DHT22;2334;48.710;9.622;2023-04-03T09:53:45;7.30;99.90
4643;DHT22;2334;48.710;9.622;2023-04-03T09:56:24;7.40;99.90
4643;DHT22;2334;48.710;9.622;2023-04-03T09:59:07;7.40;99.90
4643;DHT22;2334;48.710;9.622;2023-04-03T10:01:36;7.40;99.90
4643;DHT22;2334;48.710;9.622;2023-04-03T10:04:09;7.00;99.90
4643;DHT22;2334;48.710;9.622;2023-04-03T10:06:39;6.90;99.90
4643;DHT22;2334;48.710;9.622;2023-04-03T10:09:18;6.80;99.90
4643;DHT22;2334;48.710;9.622;2023-04-03T10:12:01;6.70;99.90
4643;DHT22;2334;48.710;9.622;2023-04-03T10:14:32;6.60;99.90
4643;DHT22;2334;48.710;9.622;2023-04-03T10:17:09;6.50;99.90
4643;DHT22;2334;48.710;9.622;2023-04-03T10:19:44;6.40;99.90
4643;DHT22;2334;48.710;9.622;2023-04-03T10:22:18;6.30;99.90
4643;DHT22;2334;48.710;9.622;2023-04-03T10:24:56;6.40;99.90
4643;DHT22;2334;48.710;9.622;2023-04-03T10:27:36;6.40;99.90
4643;DHT22;2334;48.710;9.622;2023-04-03T10:30:21;6.50;99.90
4643;DHT22;2334;48.710;9.622;2023-04-03T10:32:59;6.60;99.90
4643;DHT22;2334;48.710;9.622;2023-04-03T10:35:37;6.70;99.90
4643;DHT22;2334;48.710;9.622;2023-04-03T10:38:12;6.80;99.90
4643;DHT22;2334;48.710;9.622;2023-04-03T10:40:47;6.90;99.90
4643;DHT22;2334;48.710;9.622;2023-04-03T10:43:21;6.80;99.90
4643;DHT22;2334;48.710;9.622;2023-04-03T10:45:57;6.90;99.90
4643;DHT22;2334;48.710;9.622;2023-04-03T10:51:27;6.90;99.90
4643;DHT22;2334;48.710;9.622;2023-04-03T10:53:59;6.90;99.90
4643;DHT22;2334;48.710;9.622;2023-04-03T10:56:32;6.90;99.90
4643;DHT22;2334;48.710;9.622;2023-04-03T10:59:13;6.90;99.90
4643;DHT22;2334;48.710;9.622;2023-04-03T11:01:46;6.70;99.90
4643;DHT22;2334;48.710;9.622;2023-04-03T11:04:14;6.70;99.90
4643;DHT22;2334;48.710;9.622;2023-04-03T11:06:47;6.70;99.90
4643;DHT22;2334;48.710;9.622;2023-04-03T11:09:22;6.70;99.90
4643;DHT22;2334;48.710;9.622;2023-04-03T11:11:51;6.70;99.90
4643;DHT22;2334;48.710;9.622;2023-04-03T11:14:24;6.60;99.90
4643;DHT22;2334;48.710;9.622;2023-04-03T11:17:01;6.60;99.90
4643;DHT22;2334;48.710;9.622;2023-04-03T11:19:35;6.70;99.90
4643;DHT22;2334;48.710;9.622;2023-04-03T11:22:10;6.70;99.90
4643;DHT22;2334;48.710;9.622;2023-04-03T11:24:40;6.70;99.90
4643;DHT22;2334;48.710;9.622;2023-04-03T11:27:15;6.70;99.90
4643;DHT22;2334;48.710;9.622;2023-04-03T11:29:45;6.90;99.90
4643;DHT22;2334;48.710;9.622;2023-04-03T11:32:40;7.00;99.90
4643;DHT22;2334;48.710;9.622;2023-04-03T11:35:09;7.10;99.90
4643;DHT22;2334;48.710;9.622;2023-04-03T11:37:39;7.30;99.90
4643;DHT22;2334;48.710;9.622;2023-04-03T11:40:21;7.30;99.90
4643;DHT22;2334;48.710;9.622;2023-04-03T11:42:51;7.40;99.90
4643;DHT22;2334;48.710;9.622;2023-04-03T11:45:36;7.40;99.90
4643;DHT22;2334;48.710;9.622;2023-04-03T11:48:06;7.40;
4643;DHT22;2334;48.710;9.622;2023-04-03T11:50:47;7.20;99.90
4643;DHT22;2334;48.710;9.622;2023-04-03T11:53:27;7.10;99.90
4643;DHT22;2334;48.710;9.622;2023-04-03T11:55:57;7.10;99.90
4643;DHT22;2334;48.710;9.622;2023-04-03T11:58:25;7.00;99.90
4643;DHT22;2334;48.710;9.622;2023-04-03T12:01:00;7.00;99.90
4643;DHT22;2334;48.710;9.622;2023-04-03T12:04:08;7.10;99.90
4643;DHT22;2334;48.710;9.622;2023-04-03T12:06:53;7.20;99.90
4643;DHT22;2334;48.710;9.622;2023-04-03T12:09:26;7.30;99.90
4643;DHT22;2334;48.710;9.622;2023-04-03T12:11:55;7.30;99.90
4643;DHT22;2334;48.710;9.622;2023-04-03T12:14:23;7.30;99.90
4643;DHT22;2334;48.710;9.622;2023-04-03T12:16:55;7.50;99.90
4643;DHT22;2334;48.710;9.622;2023-04-03T12:19:34;7.80;99.90
4643;DHT22;2334;48.710;9.622;2023-04-03T12:22:09;7.90;99.90
4643;DHT22;2334;48.710;9.622;2023-04-03T12:24:38;7.90;99.90
4643;DHT22;2334;48.710;9.622;2023-04-03T12:27:24;7.80;99.90
4643;DHT22;2334;48.710;9.622;2023-04-03T12:29:56;7.70;99.90
4643;DHT22;2334;48.710;9.622;2023-04-03T12:32:51;7.60;99.90
4643;DHT22;2334;48.710;9.622;2023-04-03T12:35:27;7.50;99.90
4643;DHT22;2334;48.710;9.622;2023-04-03T12:38:17;7.50;99.90
4643;DHT22;2334;48.710;9.622;2023-04-03T12:40:55;7.60;99.90
4643;DHT22;2334;48.710;9.622;2023-04-03T12:43:47;7.60;99.90
4643;DHT22;2334;48.710;9.622;2023-04-03T12:46:19;7.60;99.90
4643;DHT22;2334;48.710;9.622;2023-04-03T12:48:49;7.80;99.90
4643;DHT22;2334;48.710;9.622;2023-04-03T12:51:20;8.20;99.90
4643;DHT22;2334;48.710;9.622;2023-04-03T12:53:49;8.50;99.90
4643;DHT22;2334;48.710;9.622;2023-04-03T12:56:20;8.50;99.90
4643;DHT22;2334;48.710;9.622;2023-04-03T12:58:47;8.50;99.90
4643;DHT22;2334;48.710;9.622;2023-04-03T13:01:16;8.40;99.90
4643;DHT22;2334;48.710;9.622;2023-04-03T13:03:47;8.30;99.90
4643;DHT22;2334;48.710;9.622;2023-04-03T13:06:19;8.10;99.90
4643;DHT22;2334;48.710;9.622;2023-04-03T13:08:52;8.10;99.90
4643;DHT22;2334;48.710;9.622;2023-04-03T13:11:20;8.40;99.90
4643;DHT22;2334;48.710;9.622;2023-04-03T13:13:55;8.50;99.90
4643;DHT22;2334;48.710;9.622;2023-04-03T13:16:22;8.80;99.90
4643;DHT22;2334;48.710;9.622;2023-04-03T13:18:51;8.80;99.90
4643;DHT22;2334;48.710;9.622;2023-04-03T13:21:22;8.70;99.90
4643;DHT22;2334;48.710;9.622;2023-04-03T13:23:52;8.70;99.90
4643;DHT22;2334;48.710;9.622;2023-04-03T13:26:22;8.60;99.90
4643;DHT22;2334;48.710;9.622;2023-04-03T13:28:52;8.60;99.90
4643;DHT22;2334;48.710;9.622;2023-04-03T13:31:23;8.70;99.90
4643;DHT22;2334;48.710;9.622;2023-04-03T13:33:57;8.60;99.90
4643;DHT22;2334;48.710;9.622;2023-04-03T13:36:29;8.60;99.90
4643;DHT22;2334;48.710;9.622;2023-04-03T13:39:05;8.50;99.90
4643;DHT22;2334;48.710;9.622;2023-04-03T13:41:35;8.70;99.90
4643;DHT22;2334;48.710;9.622;2023-04-03T13:44:31;8.70;99.90
4643;DHT22;2334;48.710;9.622;2023-04-03T13:47:01;8.60;99.90
4643;DHT22;2334;48.710;9.622;2023-04-03T13:49:43;8.60;99.90
4643;DHT22;2334;48.710;9.622;2023-04-03T13:52:29;8.90;99.90
4643;DHT22;2334;48.710;9.622;2023-04-03T13:54:58;9.20;99.90
4643;DHT22;2334;48.710;9.622;2023-04-03T13:57:26;9.10;99.90
4643;DHT22;2334;48.710;9.622;2023-04-03T13:59:53;9.00;99.90
4643;DHT22;2334;48.710;9.622;2023-04-03T14:02:23;9.10;99.90
4643;DHT22;2334;48.710;9.622;2023-04-03T14:04:57;8.80;99.90
4643;DHT22;2334;48.710;9.622;2023-04-03T14:07:29;8.50;99.90
4643;DHT22;2334;48.710;9.622;2023-04-03T14:09:56;8.30;99.90
4643;DHT22;2334;48.710;9.622;2023-04-03T14:12:26;8.20;99.90
4643;DHT22;2334;48.710;9.622;2023-04-03T14:14:54;8.10;99.90
4643;DHT22;2334;48.710;9.622;2023-04-03T14:17:24;8.00;99.90
4643;DHT22;2334;48.710;9.622;2023-04-03T14:19:53;8.00;99.90
4643;DHT22;2334;48.710;9.622;2023-04-03T14:22:21;8.00;99.90
4643;DHT22;2334;48.710;9.622;2023-04-03T14:24:51;8.00;99.90
4643;DHT22;2334;48.710;9.622;2023-04-03T14:27:19;7.90;99.90
4643;DHT22;2334;48.710;9.622;2023-04-03T14:29:47;7.90;99.90
4643;DHT22;2334;48.710;9.622;2023-04-03T14:32:16;7.90;99.90
4643;DHT22;2334;48.710;9.622;2023-04-03T14:34:44;8.00;99.90
4643;DHT22;2334;48.710;9.622;2023-04-03T14:37:13;8.00;99.90
4643;DHT22;2334;48.710;9.622;2023-04-03T14:39:42;8.10;99.90
4643;DHT22;2334;48.710;9.622;2023-04-03T14:42:15;8.40;99.90
4643;DHT22;2334;48.710;9.622;2023-04-03T14:44:43;8.40;99.90
4643;DHT22;2334;48.710;9.622;2023-04-03T14:47:11;8.40;99.90
4643;DHT22;2334;48.710;9.622;2023-04-03T14:49:39;8.20;99.90
4643;DHT22;2334;48.710;9.622;2023-04-03T14:52:06;8.10;99.90
4643;DHT22;2334;48.710;9.622;2023-04-03T14:54:37;8.20;99.90
4643;DHT22;2334;48.710;9.622;2023-04-03T14:57:08;8.10;99.90
4643;DHT22;2334;48.710;9.622;2023-04-03T14:59:39;8.10;99.90
4643;DHT22;2334;48.710;9.622;2023-04-03T15:02:25;8.20;99.90
4643;DHT22;2334;48.710;9.622;2023-04-03T15:04:52;8.10;99.90
4643;DHT22;2334;48.710;9.622;2023-04-03T15:07:19;8.30;99.90
4643;DHT22;2334;48.710;9.622;2023-04-03T15:09:46;8.60;99.90
4643;DHT22;2334;48.710;9.622;2023-04-03T15:12:13;8.60;99.90
4643;DHT22;2334;48.710;9.622;2023-04-03T15:14:42;8.50;99.90
4643;DHT22;2334;48.710;9.622;2023-04-03T15:17:15;8.50;99.90
4643;DHT22;2334;48.710;9.622;2023-04-03T15:19:43;8.40;99.90
4643;DHT22;2334;48.710;9.622;2023-04-03T15:22:13;8.40;99.90
4643;DHT22;2334;48.710;9.622;2023-04-03T15:24:40;8.40;99.90
4643;DHT22;2334;48.710;9.622;2023-04-03T15:27:08;8.50;99.90
4643;DHT22;2334;48.710;9.622;2023-04-03T15:29:35;8.60;99.90
4643;DHT22;2334;48.710;9.622;2023-04-03T15:32:04;9.30;99.90
4643;DHT22;2334;48.710;9.622;2023-04-03T15:34:31;10.00;99.90
4643;DHT22;2334;48.710;9.622;2023-04-03T15:36:58;10.00;99.90
4643;DHT22;2334;48.710;9.622;2023-04-03T15:39:25;9.30;99.90
4643;DHT22;2334;48.710;9.622;2023-04-03T15:41:53;8.80;99.90
4643;DHT22;2334;48.710;9.622;2023-04-03T15:44:20;8.40;99.90
4643;DHT22;2334;48.710;9.622;2023-04-03T15:46:48;8.00;99.90
4643;DHT22;2334;48.710;9.622;2023-04-03T15:49:19;7.70;99.90
4643;DHT22;2334;48.710;9.622;2023-04-03T15:51:46;7.70;99.90
4643;DHT22;2334;48.710;9.622;2023-04-03T15:54:13;8.80;99.90
4643;DHT22;2334;48.710;9.622;2023-04-03T15:56:40;9.70;99.90
4643;DHT22;2334;48.710;9.622;2023-04-03T15:59:07;9.50;99.90
4643;DHT22;2334;48.710;9.622;2023-04-03T16:01:34;9.10;99.90
4643;DHT22;2334;48.710;9.622;2023-04-03T16:04:01;9.40;99.90
4643;DHT22;2334;48.710;9.622;2023-04-03T16:06:29;10.10;99.90
4643;DHT22;2334;48.710;9.622;2023-04-03T16:08:57;10.20;99.90
4643;DHT22;2334;48.710;9.622;2023-04-03T16:11:24;9.80;99.90
4643;DHT22;2334;48.710;9.622;2023-04-03T16:13:51;9.50;99.90
4643;DHT22;2334;48.710;9.622;2023-04-03T16:16:18;9.10;99.90
4643;DHT22;2334;48.710;9.622;2023-04-03T16:18:45;8.70;99.90
4643;DHT22;2334;48.710;9.622;2023-04-03T16:21:14;8.30;99.90
4643;DHT22;2334;48.710;9.622;2023-04-03T16:23:43;7.90;99.90
4643;DHT22;2334;48.710;9.622;2023-04-03T16:26:10;7.70;99.90
4643;DHT22;2334;48.710;9.622;2023-04-03T16:28:37;7.40;99.90
4643;DHT22;2334;48.710;9.622;2023-04-03T16:31:05;7.30;99.90
4643;DHT22;2334;48.710;9.622;2023-04-03T16:33:32;7.20;99.90
4643;DHT22;2334;48.710;9.622;2023-04-03T16:35:59;7.10;99.90
4643;DHT22;2334;48.710;9.622;2023-04-03T16:38:27;7.10;99.90
4643;DHT22;2334;48.710;9.622;2023-04-03T16:40:55;7.20;99.90
4643;DHT22;2334;48.710;9.622;2023-04-03T16:43:24;8.20;99.90